Frierson, Louisiana
Current Conditions -  °F | °C
As of 12:56 AM on Friday 28 Nov 2014 (Local Time) from KSHV Reporting Station
Clear Clear  
Wind Chill: 35°   Ceiling: Unl
Heat Index: 39°   Visibility: 10mi
Dew Point: 32°   Wind: 6mph
Humidity: 76%   Direction: 130°SE
Pressure: 30.4"   Gusts: NA
Location:  32.25°N, 93.69°W
Report Text: KSHV 280656Z 13005KT 10SM CLR 04/00 A3040 RMK AO2 SLP295 T00390000
Loading
Personal Weather Stations






























Interactive Weather Map New forecast layout! Learn more

10-Day Weather Forecast

Advertisements
Track Severe Weather on mobile